Main page
METAR-TAF:

METAR-TAF

Airports :

Benazir Bhutto International Airport

Islamabad, Pakistan

latitude: 33-37N, longitude: 073-06E, elevation: 507 m

Current weather observation

The report was made 21 minutes ago, at 10:00 UTC
Calm wind
Temperature 25°C
Humidity 32%
Pressure 1018 hPa
Visibility: 4000 m
haze

METAR: OPRN 191000Z 00000KT 4000 HZ NSC 25/07 Q1018 NOSIG RMK A3007

Time: 15:21 (10:21 UTC)

Forecast

The report was made 6 hours and 51 minutes ago, at 03:30 UTC
Forecast valid from 19 at 06 UTC to 20 at 12 UTC
Wind 8 kt from the East/Northeast
Visibility: 5000 m
Few clouds at a height of 10000 ft
Scattered clouds at a height of 20000 ft
haze
Temporary
from 19 at 09 UTC to 19 at 13 UTC
Scattered clouds at a height of 10000 ft
Becoming
from 19 at 18 UTC to 19 at 20 UTC
Visibility: 4000 m
haze

TAF: OPRN 190330Z 1906/2012 07008KT 5000 HZ FEW100 SCT200 TEMPO 1909/1913 SCT100 BECMG 1918/1920 4000 HZ NSC

Weather observations and forecasts of more than 4000 airports (METAR and TAF reports).

The available stations are represented by yellow and red dots on the map.

Hover mouse over dot to see the name of the station.

Then click to see weather observations and forecasts.

To change the map : click on the green buttons with a black cross to zoom in, on the green button with a dash to zoom out, or on the green arrows for adjacent maps.


METAR-TAF: